createdAt,value
2022-10-09T00:00:34.664Z,95673.44
2022-10-09T00:03:02.918Z,95676.63
2022-10-09T00:05:31.137Z,95673.78
2022-10-09T00:08:00.295Z,95673.78
2022-10-09T00:10:28.066Z,95664.19
2022-10-09T00:12:55.764Z,95666.75
2022-10-09T00:15:23.548Z,95666.16
2022-10-09T00:17:51.184Z,95670.97
2022-10-09T00:20:19.041Z,95662.22
2022-10-09T00:22:46.973Z,95659.94
2022-10-09T00:25:16.297Z,95667.53
2022-10-09T00:27:43.918Z,95663.59
2022-10-09T00:30:12.263Z,95664.03
2022-10-09T00:32:39.865Z,95657.34
2022-10-09T00:35:08.487Z,95658.03
2022-10-09T00:37:36.113Z,95640.75
2022-10-09T00:40:03.865Z,95640.81
2022-10-09T00:42:32.865Z,95650.88
2022-10-09T00:45:02.203Z,95652.00
2022-10-09T00:47:33.007Z,95643.97
2022-10-09T00:50:04.026Z,95653.28
2022-10-09T00:52:33.411Z,95653.94
2022-10-09T00:55:02.791Z,95649.34
2022-10-09T00:57:32.442Z,95648.13
2022-10-09T01:00:00.213Z,95644.63
2022-10-09T01:02:27.929Z,95634.66
2022-10-09T01:04:55.612Z,95637.16
2022-10-09T01:07:39.916Z,95639.03
2022-10-09T01:10:14.586Z,95635.13
2022-10-09T01:12:49.262Z,95628.81
2022-10-09T01:15:19.400Z,95628.88
2022-10-09T01:17:53.021Z,95624.97
2022-10-09T01:20:46.125Z,95622.69
2022-10-09T01:23:27.538Z,95616.06
2022-10-09T01:26:00.736Z,95615.41
2022-10-09T01:28:30.634Z,95615.66
2022-10-09T01:30:59.617Z,95605.25
2022-10-09T01:33:28.041Z,95602.59
2022-10-09T01:35:55.679Z,95609.88
2022-10-09T01:38:24.680Z,95606.56
2022-10-09T01:40:53.555Z,95602.41
2022-10-09T01:43:21.357Z,95602.84
2022-10-09T01:45:50.429Z,95601.19
2022-10-09T01:48:20.665Z,95599.53
2022-10-09T01:50:54.465Z,95591.81
2022-10-09T01:53:22.625Z,95597.69
2022-10-09T01:55:57.586Z,95592.09
2022-10-09T01:58:30.419Z,95586.66
2022-10-09T02:01:03.328Z,95587.09
2022-10-09T02:03:31.752Z,95584.84
2022-10-09T02:06:01.277Z,95579.63
2022-10-09T02:08:30.429Z,95570.88
2022-10-09T02:10:59.697Z,95561.91
2022-10-09T02:13:27.540Z,95569.41
2022-10-09T02:16:00.210Z,95567.16
2022-10-09T02:18:33.996Z,95564.44
2022-10-09T02:21:08.226Z,95560.06
2022-10-09T02:23:36.217Z,95559.44
2022-10-09T02:26:03.857Z,95551.13
2022-10-09T02:28:31.726Z,95548.00
2022-10-09T02:31:05.139Z,95551.19
2022-10-09T02:33:33.397Z,95556.84
2022-10-09T02:36:01.832Z,95548.91
2022-10-09T02:38:29.502Z,95553.50
2022-10-09T02:40:59.160Z,95547.06
2022-10-09T02:43:26.811Z,95539.38
2022-10-09T02:45:54.414Z,95538.53
2022-10-09T02:48:23.378Z,95539.38
2022-10-09T02:50:50.960Z,95539.16
2022-10-09T02:53:18.780Z,95541.41
2022-10-09T02:55:47.146Z,95541.41
2022-10-09T02:58:14.801Z,95534.53
2022-10-09T03:00:42.458Z,95531.81
2022-10-09T03:03:10.121Z,95537.50
2022-10-09T03:05:39.125Z,95527.69
2022-10-09T03:08:06.830Z,95523.72
2022-10-09T03:10:34.497Z,95528.13
2022-10-09T03:13:02.108Z,95527.06
2022-10-09T03:15:29.786Z,95533.53
2022-10-09T03:17:57.384Z,95525.63
2022-10-09T03:20:25.024Z,95521.47
2022-10-09T03:22:53.987Z,95522.09
2022-10-09T03:25:21.642Z,95512.28
2022-10-09T03:27:49.298Z,95512.28
2022-10-09T03:30:17.052Z,95503.13
2022-10-09T03:32:44.671Z,95512.31
2022-10-09T03:35:12.381Z,95522.34
2022-10-09T03:37:39.997Z,95516.72
2022-10-09T03:40:10.101Z,95514.00
2022-10-09T03:42:37.820Z,95516.13
2022-10-09T03:45:06.208Z,95519.88
2022-10-09T03:47:33.838Z,95523.63
2022-10-09T03:50:01.646Z,95520.09
2022-10-09T03:52:29.259Z,95532.63
2022-10-09T03:54:56.821Z,95530.72
2022-10-09T03:57:25.779Z,95523.63
2022-10-09T03:59:53.371Z,95518.19
2022-10-09T04:02:21.103Z,95515.69
2022-10-09T04:04:48.774Z,95520.72
2022-10-09T04:07:16.398Z,95528.25
2022-10-09T04:09:44.067Z,95522.22
2022-10-09T04:12:11.680Z,95526.19
2022-10-09T04:14:40.796Z,95521.22
2022-10-09T04:17:08.545Z,95519.56
2022-10-09T04:19:36.156Z,95525.41
2022-10-09T04:22:03.927Z,95522.09
2022-10-09T04:24:31.553Z,95522.53
2022-10-09T04:26:59.290Z,95527.34
2022-10-09T04:29:26.963Z,95525.88
2022-10-09T04:31:56.000Z,95516.53
2022-10-09T04:34:23.695Z,95516.53
2022-10-09T04:36:51.289Z,95515.91
2022-10-09T04:39:18.917Z,95509.25
2022-10-09T04:41:46.522Z,95513.47
2022-10-09T04:44:14.153Z,95504.69
2022-10-09T04:46:41.813Z,95503.88
2022-10-09T04:49:13.981Z,95505.13
2022-10-09T04:51:41.633Z,95505.13
2022-10-09T04:54:10.092Z,95501.41
2022-10-09T04:56:37.707Z,95496.84
2022-10-09T04:59:05.377Z,95494.34
2022-10-09T05:01:37.835Z,95486.00
2022-10-09T05:04:06.149Z,95488.50
2022-10-09T05:06:35.184Z,95486.00
2022-10-09T05:09:02.811Z,95480.78
2022-10-09T05:11:30.425Z,95483.50
2022-10-09T05:13:59.318Z,95471.03
2022-10-09T05:16:28.573Z,95475.63
2022-10-09T05:18:57.400Z,95476.44
2022-10-09T05:21:25.204Z,95476.88
2022-10-09T05:23:55.486Z,95481.47
2022-10-09T05:26:24.585Z,95486.03
2022-10-09T05:28:52.642Z,95478.13
2022-10-09T05:31:22.408Z,95475.66
2022-10-09T05:33:50.474Z,95477.28
2022-10-09T05:36:18.216Z,95481.28
2022-10-09T05:38:45.960Z,95471.69
2022-10-09T05:41:16.667Z,95478.56
2022-10-09T05:43:45.950Z,95476.69
2022-10-09T05:46:15.126Z,95474.59
2022-10-09T05:48:44.588Z,95477.50
2022-10-09T05:51:14.534Z,95477.28
2022-10-09T05:53:43.590Z,95478.97
2022-10-09T05:56:17.588Z,95468.13
2022-10-09T05:58:45.906Z,95471.06
2022-10-09T06:01:13.595Z,95470.84
2022-10-09T06:03:41.276Z,95476.88
2022-10-09T06:06:09.686Z,95474.16
2022-10-09T06:08:38.714Z,95473.13
2022-10-09T06:11:10.749Z,95467.53
2022-10-09T06:13:39.815Z,95476.69
2022-10-09T06:16:07.582Z,95475.66
2022-10-09T06:18:35.507Z,95477.28
2022-10-09T06:21:03.352Z,95482.72
2022-10-09T06:23:32.071Z,95483.31
2022-10-09T06:26:01.647Z,95485.59
2022-10-09T06:28:29.729Z,95484.78
2022-10-09T06:31:03.633Z,95483.75
2022-10-09T06:33:32.810Z,95487.28
2022-10-09T06:36:09.759Z,95483.50
2022-10-09T06:38:38.549Z,95490.59
2022-10-09T06:41:07.887Z,95489.56
2022-10-09T06:43:35.734Z,95495.59
2022-10-09T06:46:06.530Z,95497.03
2022-10-09T06:48:35.207Z,95502.88
2022-10-09T06:51:03.216Z,95498.28
2022-10-09T06:53:31.334Z,95501.97
2022-10-09T06:55:59.456Z,95505.94
2022-10-09T06:58:27.099Z,95507.16
2022-10-09T07:01:05.795Z,95509.44
2022-10-09T07:03:33.948Z,95511.72
2022-10-09T07:06:09.588Z,95505.47
2022-10-09T07:08:37.821Z,95506.28
2022-10-09T07:11:10.431Z,95503.16
2022-10-09T07:13:38.197Z,95495.41
2022-10-09T07:16:07.608Z,95501.22
2022-10-09T07:18:35.703Z,95502.69
2022-10-09T07:21:04.043Z,95506.81
2022-10-09T07:23:32.302Z,95512.84
2022-10-09T07:26:00.543Z,95509.28
2022-10-09T07:28:30.210Z,95498.00
2022-10-09T07:30:57.945Z,95498.16
2022-10-09T07:33:26.993Z,95503.56
2022-10-09T07:35:55.584Z,95501.47
2022-10-09T07:38:24.430Z,95489.34
2022-10-09T07:40:52.089Z,95497.66
2022-10-09T07:43:19.967Z,95497.38
2022-10-09T07:45:47.876Z,95494.41
2022-10-09T07:48:15.554Z,95498.31
2022-10-09T07:50:44.504Z,95494.50
2022-10-09T07:53:12.107Z,95482.34
2022-10-09T07:55:45.723Z,95489.84
2022-10-09T07:58:13.403Z,95489.31
2022-10-09T08:00:41.028Z,95487.16
2022-10-09T08:03:08.750Z,95496.31
2022-10-09T08:05:36.439Z,95490.09
2022-10-09T08:08:05.493Z,95482.25
2022-10-09T08:10:33.549Z,95487.38
2022-10-09T08:13:01.412Z,95489.88
2022-10-09T08:15:29.162Z,95489.34
2022-10-09T08:17:57.079Z,95481.34
2022-10-09T08:20:24.696Z,95486.94
2022-10-09T08:22:52.654Z,95486.47
2022-10-09T08:25:22.138Z,95492.28
2022-10-09T08:27:49.802Z,95480.97
2022-10-09T08:30:17.614Z,95488.56
2022-10-09T08:32:45.263Z,95485.78
2022-10-09T08:35:13.046Z,95481.06
2022-10-09T08:37:40.828Z,95478.47
2022-10-09T08:40:10.778Z,95480.06
2022-10-09T08:42:42.373Z,95482.09
2022-10-09T08:45:15.362Z,95479.50
2022-10-09T08:47:46.357Z,95475.13
2022-10-09T08:50:16.696Z,95478.88
2022-10-09T08:52:50.156Z,95464.06
2022-10-09T08:55:22.632Z,95471.91
2022-10-09T08:57:52.223Z,95473.00
2022-10-09T09:00:22.411Z,95476.69
2022-10-09T09:03:05.154Z,95466.50
2022-10-09T09:05:38.132Z,95461.91
2022-10-09T09:08:17.050Z,95464.03
2022-10-09T09:10:51.390Z,95455.84
2022-10-09T09:13:35.419Z,95462.81
2022-10-09T09:16:10.158Z,95467.69
2022-10-09T09:18:42.938Z,95469.69
2022-10-09T09:21:18.404Z,95460.19
2022-10-09T09:23:48.263Z,95453.78
2022-10-09T09:26:18.061Z,95455.09
2022-10-09T09:28:48.249Z,95457.78
2022-10-09T09:31:18.704Z,95457.66
2022-10-09T09:33:51.219Z,95455.50
2022-10-09T09:36:23.365Z,95445.91
2022-10-09T09:39:35.115Z,95450.63
2022-10-09T09:41:40.401Z,95451.22
2022-10-09T09:44:11.163Z,95445.97
2022-10-09T09:46:40.762Z,95449.41
2022-10-09T09:49:17.536Z,95445.72
2022-10-09T09:51:45.348Z,95440.84
2022-10-09T09:54:18.471Z,95431.16
2022-10-09T09:59:38.961Z,95430.97
2022-10-09T10:02:13.977Z,95426.09
2022-10-09T10:04:50.102Z,95426.19
2022-10-09T10:07:29.012Z,95422.44
2022-10-09T10:10:04.857Z,95417.06
2022-10-09T10:12:32.537Z,95418.81
2022-10-09T10:15:01.593Z,95406.41
2022-10-09T10:17:30.628Z,95409.88
2022-10-09T10:19:58.245Z,95405.59
2022-10-09T10:22:28.113Z,95405.91
2022-10-09T10:24:58.914Z,95404.97
2022-10-09T10:27:31.338Z,95396.28
2022-10-09T10:30:02.101Z,95391.06
2022-10-09T10:32:33.527Z,95394.63
2022-10-09T10:35:04.644Z,95391.66
2022-10-09T10:37:38.708Z,95394.03
2022-10-09T10:40:09.009Z,95389.44
2022-10-09T10:42:43.557Z,95390.19
2022-10-09T10:45:17.512Z,95394.91
2022-10-09T10:47:50.343Z,95392.44
2022-10-09T10:50:18.808Z,95391.53
2022-10-09T10:52:57.961Z,95391.09
2022-10-09T10:55:36.438Z,95389.63
2022-10-09T10:58:13.642Z,95381.94
2022-10-09T11:00:47.015Z,95383.28
2022-10-09T11:03:29.119Z,95378.69
2022-10-09T11:06:01.768Z,95388.47
2022-10-09T11:08:39.975Z,95384.19
2022-10-09T11:11:12.255Z,95388.03
2022-10-09T11:13:41.206Z,95379.06
2022-10-09T11:16:20.781Z,95377.47
2022-10-09T11:18:59.267Z,95387.28
2022-10-09T11:21:43.526Z,95378.31
2022-10-09T11:24:29.350Z,95383.19
2022-10-09T11:27:03.133Z,95376.31
2022-10-09T11:29:34.286Z,95378.84
2022-10-09T11:32:06.600Z,95373.25
2022-10-09T11:34:38.644Z,95374.97
2022-10-09T11:37:10.659Z,95364.56
2022-10-09T11:39:38.288Z,95354.84
2022-10-09T11:42:06.801Z,95365.53
2022-10-09T11:44:40.915Z,95355.78
2022-10-09T11:47:16.482Z,95344.38
2022-10-09T11:49:55.309Z,95349.84
2022-10-09T11:52:29.050Z,95340.47
2022-10-09T11:54:56.770Z,95337.44
2022-10-09T11:57:28.442Z,95334.88
2022-10-09T12:00:06.142Z,95334.88
2022-10-09T12:02:35.919Z,95329.09
2022-10-09T12:05:17.333Z,95333.06
2022-10-09T12:07:45.304Z,95330.06
2022-10-09T12:10:24.478Z,95329.00
2022-10-09T12:12:57.759Z,95327.25
2022-10-09T12:15:28.597Z,95323.06
2022-10-09T12:17:57.679Z,95319.28
2022-10-09T12:20:26.471Z,95318.03
2022-10-09T12:23:21.809Z,95317.78
2022-10-09T12:25:45.966Z,95319.63
2022-10-09T12:28:21.949Z,95314.38
2022-10-09T12:30:50.313Z,95307.28
2022-10-09T12:33:23.960Z,95300.53
2022-10-09T12:36:00.360Z,95301.06
2022-10-09T12:38:29.752Z,95295.53
2022-10-09T12:40:59.850Z,95294.19
2022-10-09T12:43:27.517Z,95289.53
2022-10-09T12:45:55.530Z,95289.81
2022-10-09T12:48:26.336Z,95285.16
2022-10-09T12:50:54.328Z,95291.72
2022-10-09T12:53:23.898Z,95294.06
2022-10-09T12:55:54.501Z,95282.63
2022-10-09T12:58:23.704Z,95288.44
2022-10-09T13:00:53.058Z,95278.00
2022-10-09T13:03:27.009Z,95280.13
2022-10-09T13:05:54.716Z,95277.41
2022-10-09T13:08:26.304Z,95276.94
2022-10-09T13:10:54.232Z,95268.78
2022-10-09T13:13:25.560Z,95269.16
2022-10-09T13:16:01.102Z,95260.06
2022-10-09T13:18:30.594Z,95272.97
2022-10-09T13:21:03.045Z,95261.69
2022-10-09T13:23:33.118Z,95260.06
2022-10-09T13:26:03.649Z,95264.47
2022-10-09T13:28:31.967Z,95257.88
2022-10-09T13:31:07.186Z,95262.34
2022-10-09T13:33:36.245Z,95256.03
2022-10-09T13:36:04.271Z,95258.53
2022-10-09T13:38:34.938Z,95259.13
2022-10-09T13:41:03.167Z,95252.03
2022-10-09T13:43:31.172Z,95250.72
2022-10-09T13:45:59.110Z,95253.16
2022-10-09T13:48:29.353Z,95252.94
2022-10-09T13:50:59.862Z,95249.03
2022-10-09T13:53:28.333Z,95249.03
2022-10-09T13:56:00.727Z,95246.91
2022-10-09T13:58:28.938Z,95234.81
2022-10-09T14:00:58.082Z,95236.97
2022-10-09T14:03:25.818Z,95235.00
2022-10-09T14:05:59.961Z,95233.38
2022-10-09T14:08:27.763Z,95231.72
2022-10-09T14:10:55.604Z,95237.19
2022-10-09T14:13:23.320Z,95226.75
2022-10-09T14:15:51.618Z,95227.59
2022-10-09T14:18:19.337Z,95218.59
2022-10-09T14:20:47.083Z,95210.34
2022-10-09T14:23:16.104Z,95214.16
2022-10-09T14:25:43.734Z,95217.44
2022-10-09T14:28:11.412Z,95201.59
2022-10-09T14:30:41.077Z,95202.94
2022-10-09T14:33:09.136Z,95211.97
2022-10-09T14:35:36.799Z,95206.25
2022-10-09T14:38:04.475Z,95204.63
2022-10-09T14:40:33.529Z,95213.09
2022-10-09T14:43:01.500Z,95200.53
2022-10-09T14:45:29.184Z,95209.31
2022-10-09T14:47:56.802Z,95210.44
2022-10-09T14:50:24.453Z,95208.53
2022-10-09T14:52:52.428Z,95210.44
2022-10-09T14:55:20.137Z,95211.31
2022-10-09T14:57:49.035Z,95209.91
2022-10-09T15:00:17.337Z,95210.69
2022-10-09T15:02:44.895Z,95209.81
2022-10-09T15:05:12.469Z,95199.91
2022-10-09T15:07:40.245Z,95201.53
2022-10-09T15:10:08.295Z,95201.59
2022-10-09T15:12:35.909Z,95195.56
2022-10-09T15:15:05.494Z,95185.97
2022-10-09T15:17:33.109Z,95171.75
2022-10-09T15:20:00.741Z,95181.53
2022-10-09T15:22:28.333Z,95176.63
2022-10-09T15:24:55.952Z,95174.44
2022-10-09T15:27:23.556Z,95176.91
2022-10-09T15:29:51.152Z,95170.28
2022-10-09T15:32:20.144Z,95175.16
2022-10-09T15:34:47.904Z,95169.19
2022-10-09T15:37:15.529Z,95166.97
2022-10-09T15:39:43.225Z,95170.50
2022-10-09T15:42:10.860Z,95161.44
2022-10-09T15:44:38.491Z,95158.94
2022-10-09T15:47:06.268Z,95165.16
2022-10-09T15:49:35.315Z,95158.38
2022-10-09T15:52:02.947Z,95156.69
2022-10-09T15:54:30.693Z,95153.72
2022-10-09T15:56:58.383Z,95143.78
2022-10-09T15:59:26.520Z,95140.19
2022-10-09T16:01:54.184Z,95136.88
2022-10-09T16:04:21.849Z,95125.94
2022-10-09T16:06:50.871Z,95135.72
2022-10-09T16:09:18.506Z,95137.56
2022-10-09T16:11:46.137Z,95134.53
2022-10-09T16:14:13.772Z,95132.56
2022-10-09T16:16:41.417Z,95137.50
2022-10-09T16:19:09.070Z,95132.03
2022-10-09T16:21:36.773Z,95136.91
2022-10-09T16:24:06.160Z,95135.28
2022-10-09T16:26:33.774Z,95137.72
2022-10-09T16:29:01.645Z,95137.66
2022-10-09T16:31:31.221Z,95139.00
2022-10-09T16:33:59.352Z,95138.94
2022-10-09T16:36:27.138Z,95138.63
2022-10-09T16:38:55.029Z,95132.53
2022-10-09T16:41:24.711Z,95129.47
2022-10-09T16:43:54.709Z,95128.41
2022-10-09T16:46:24.359Z,95122.94
2022-10-09T16:48:53.506Z,95128.91
2022-10-09T16:51:23.810Z,95131.03
2022-10-09T16:53:52.246Z,95129.88
2022-10-09T16:56:21.568Z,95130.31
2022-10-09T16:58:50.681Z,95136.16
2022-10-09T17:01:18.370Z,95139.66
2022-10-09T17:03:46.297Z,95143.66
2022-10-09T17:06:15.666Z,95136.53
2022-10-09T17:08:43.308Z,95132.97
2022-10-09T17:11:12.449Z,95126.81
2022-10-09T17:13:40.530Z,95132.78
2022-10-09T17:16:17.162Z,95128.63
2022-10-09T17:18:45.981Z,95134.63
2022-10-09T17:21:14.682Z,95134.03
2022-10-09T17:23:42.621Z,95130.63
2022-10-09T17:26:12.024Z,95140.97
2022-10-09T17:28:40.298Z,95136.00
2022-10-09T17:31:11.004Z,95130.50
2022-10-09T17:33:42.005Z,95129.66
2022-10-09T17:36:09.733Z,95121.06
2022-10-09T17:38:37.527Z,95126.75
2022-10-09T17:41:05.536Z,95121.06
2022-10-09T17:43:33.544Z,95131.06
2022-10-09T17:46:01.576Z,95125.22
2022-10-09T17:48:32.954Z,95111.00
2022-10-09T17:51:01.851Z,95115.88
2022-10-09T17:53:29.679Z,95117.53
2022-10-09T17:55:58.390Z,95124.53
2022-10-09T17:58:26.045Z,95127.78
2022-10-09T18:00:54.039Z,95114.66
2022-10-09T18:03:21.913Z,95117.06
2022-10-09T18:05:51.772Z,95122.50
2022-10-09T18:08:20.195Z,95111.84
2022-10-09T18:10:47.963Z,95113.47
2022-10-09T18:13:15.598Z,95108.53
2022-10-09T18:15:44.650Z,95116.28
2022-10-09T18:18:12.462Z,95106.72
2022-10-09T18:20:40.853Z,95107.13
2022-10-09T18:23:10.229Z,95101.59
2022-10-09T18:25:41.862Z,95099.59
2022-10-09T18:28:10.447Z,95103.97
2022-10-09T18:30:41.787Z,95099.28
2022-10-09T18:33:09.549Z,95097.53
2022-10-09T18:35:37.701Z,95089.03
2022-10-09T18:38:05.743Z,95090.66
2022-10-09T18:40:41.894Z,95082.16
2022-10-09T18:43:13.202Z,95084.31
2022-10-09T18:45:45.380Z,95082.63
2022-10-09T18:48:12.860Z,95086.69
2022-10-09T18:50:40.591Z,95080.69
2022-10-09T18:53:08.624Z,95079.75
2022-10-09T18:55:38.338Z,95068.66
2022-10-09T18:58:06.213Z,95066.34
2022-10-09T19:00:33.851Z,95080.16
2022-10-09T19:03:01.710Z,95076.72
2022-10-09T19:05:29.386Z,95072.34
2022-10-09T19:07:57.161Z,95074.00
2022-10-09T19:10:25.359Z,95079.94
2022-10-09T19:12:55.122Z,95077.59
2022-10-09T19:15:23.216Z,95075.72
2022-10-09T19:17:51.458Z,95070.41
2022-10-09T19:20:19.373Z,95069.72
2022-10-09T19:22:47.226Z,95065.81
2022-10-09T19:25:14.949Z,95064.28
2022-10-09T19:27:42.787Z,95072.78
2022-10-09T19:30:12.661Z,95056.38
2022-10-09T19:32:40.275Z,95059.34
2022-10-09T19:35:09.279Z,95060.56
2022-10-09T19:37:37.055Z,95058.09
2022-10-09T19:40:05.470Z,95066.25
2022-10-09T19:42:33.576Z,95052.53
2022-10-09T19:45:01.245Z,95056.78
2022-10-09T19:47:30.339Z,95048.19
2022-10-09T19:49:59.548Z,95053.50
2022-10-09T19:52:27.254Z,95048.41
2022-10-09T19:54:55.509Z,95047.94
2022-10-09T19:57:23.243Z,95047.56
2022-10-09T19:59:50.925Z,95056.91
2022-10-09T20:02:18.652Z,95057.25
2022-10-09T20:04:50.428Z,95058.44
2022-10-09T20:07:18.246Z,95051.66
2022-10-09T20:09:45.930Z,95063.53
2022-10-09T20:12:13.689Z,95054.75
2022-10-09T20:14:41.388Z,95057.59
2022-10-09T20:17:09.136Z,95059.16
2022-10-09T20:19:36.834Z,95055.47
2022-10-09T20:22:05.941Z,95050.03
2022-10-09T20:24:33.610Z,95052.16
2022-10-09T20:27:01.354Z,95054.53
2022-10-09T20:29:29.130Z,95057.09
2022-10-09T20:31:56.809Z,95051.19
2022-10-09T20:34:26.873Z,95045.28
2022-10-09T20:36:54.754Z,95050.34
2022-10-09T20:39:23.830Z,95046.44
2022-10-09T20:41:52.087Z,95042.41
2022-10-09T20:44:19.797Z,95046.31
2022-10-09T20:46:47.481Z,95042.28
2022-10-09T20:49:16.193Z,95041.47
2022-10-09T20:51:43.986Z,95041.00
2022-10-09T20:54:17.152Z,95038.50
2022-10-09T20:56:46.555Z,95032.47
2022-10-09T20:59:14.291Z,95033.91
2022-10-09T21:01:42.325Z,95035.91
2022-10-09T21:04:11.135Z,95025.59
2022-10-09T21:06:39.332Z,95040.84
2022-10-09T21:09:07.528Z,95032.94
2022-10-09T21:11:35.640Z,95033.84
2022-10-09T21:14:04.904Z,95031.22
2022-10-09T21:16:32.671Z,95029.94
2022-10-09T21:19:02.034Z,95035.63
2022-10-09T21:21:30.588Z,95042.44
2022-10-09T21:23:59.956Z,95042.78
2022-10-09T21:26:28.768Z,95036.28
2022-10-09T21:28:59.610Z,95036.06
2022-10-09T21:31:31.896Z,95034.72
2022-10-09T21:34:01.018Z,95031.88
2022-10-09T21:36:35.762Z,95022.50
2022-10-09T21:39:04.824Z,95026.13
2022-10-09T21:41:32.940Z,95027.91
2022-10-09T21:44:00.957Z,95030.38
2022-10-09T21:46:30.146Z,95026.59
2022-10-09T21:48:58.154Z,95023.03
2022-10-09T21:51:25.962Z,95024.44
2022-10-09T21:53:54.145Z,95019.31
2022-10-09T21:56:21.924Z,95020.44
2022-10-09T21:58:49.722Z,95022.13
2022-10-09T22:01:17.654Z,95018.34
2022-10-09T22:03:47.029Z,95025.75
2022-10-09T22:06:19.113Z,95025.50
2022-10-09T22:08:47.886Z,95018.41
2022-10-09T22:11:16.118Z,95020.63
2022-10-09T22:13:43.958Z,95023.94
2022-10-09T22:16:14.150Z,95021.31
2022-10-09T22:18:42.148Z,95025.69
2022-10-09T22:21:12.697Z,95020.84
2022-10-09T22:23:40.747Z,95023.88
2022-10-09T22:26:11.088Z,95024.69
2022-10-09T22:28:39.130Z,95021.50
2022-10-09T22:31:08.796Z,95021.81
2022-10-09T22:33:37.143Z,95016.69
2022-10-09T22:36:09.598Z,95027.34
2022-10-09T22:38:39.161Z,95016.44
2022-10-09T22:41:09.269Z,95012.19
2022-10-09T22:43:37.756Z,95013.47
2022-10-09T22:46:07.408Z,95020.34
2022-10-09T22:48:35.754Z,95013.31
2022-10-09T22:51:04.739Z,95016.13
2022-10-09T22:53:32.796Z,95022.13
2022-10-09T22:56:01.962Z,95027.94
2022-10-09T22:58:29.655Z,95030.91
2022-10-09T23:00:57.313Z,95030.31
2022-10-09T23:03:24.948Z,95021.31
2022-10-09T23:05:52.558Z,95018.09
2022-10-09T23:08:20.189Z,95025.78
2022-10-09T23:10:47.839Z,95030.06
2022-10-09T23:13:16.913Z,95021.31
2022-10-09T23:15:44.672Z,95028.75
2022-10-09T23:18:12.315Z,95024.13
2022-10-09T23:20:40.044Z,95022.50
2022-10-09T23:23:07.772Z,95023.31
2022-10-09T23:25:35.447Z,95017.63
2022-10-09T23:28:03.108Z,95020.91
2022-10-09T23:30:32.995Z,95030.50
2022-10-09T23:33:00.695Z,95027.50
2022-10-09T23:35:28.507Z,95022.06
2022-10-09T23:37:56.603Z,95026.44
2022-10-09T23:40:24.365Z,95022.91
2022-10-09T23:42:52.348Z,95022.91
2022-10-09T23:45:20.322Z,95021.56
2022-10-09T23:47:49.413Z,95025.94
2022-10-09T23:50:17.173Z,95025.94
2022-10-09T23:52:44.872Z,95029.72
2022-10-09T23:55:12.540Z,95022.66
2022-10-09T23:57:40.171Z,95031.31
